Time;durP1;ratioP1;P1;durP2;ratioP2;P2;SDS_P1;SDS_P2;PMS_P1;PMS_P2;Temp;Humidity;BMP_temperature;BMP_pressure;BME280_temperature;BME280_humidity;BME280_pressure;Samples;Min_cycle;Max_cycle;Signal;HPM_P1;HPM_P2
2023/08/07 00:02:14;;;;;;;1.38;0.60;;;14.80;99.90;;;;;;5000429;28;20019;-67
2023/08/07 00:04:40;;;;;;;1.85;0.30;;;14.80;99.90;;;;;;5000412;28;20079;-67
2023/08/07 00:07:05;;;;;;;1.50;0.40;;;14.80;99.90;;;;;;4999785;28;20037;-67
2023/08/07 00:09:31;;;;;;;1.60;0.30;;;14.80;99.90;;;;;;5011944;28;20090;-67
2023/08/07 00:11:56;;;;;;;0.35;0.30;;;14.80;99.90;;;;;;5018952;28;20033;-67
2023/08/07 00:14:22;;;;;;;1.73;0.32;;;14.80;99.90;;;;;;5019592;28;20030;-67
2023/08/07 00:16:47;;;;;;;1.67;0.82;;;14.80;99.90;;;;;;5018963;28;20034;-67
2023/08/07 00:19:20;;;;;;;1.92;0.77;;;14.80;99.90;;;;;;5027282;28;20022;-67
2023/08/07 00:21:46;;;;;;;1.27;1.10;;;14.80;99.90;;;;;;5019610;28;20037;-67
2023/08/07 00:24:11;;;;;;;1.27;1.02;;;14.70;99.90;;;;;;5019023;28;20030;-67
2023/08/07 00:26:37;;;;;;;1.83;1.70;;;14.60;99.90;;;;;;5019916;28;20033;-67
2023/08/07 00:29:02;;;;;;;1.30;1.20;;;14.60;99.90;;;;;;5019123;28;20058;-67
2023/08/07 00:31:31;;;;;;;1.83;1.30;;;14.50;99.90;;;;;;5018862;28;20040;-67
2023/08/07 00:33:57;;;;;;;2.15;1.30;;;14.30;99.90;;;;;;5018551;28;20034;-67
2023/08/07 00:36:23;;;;;;;1.63;1.30;;;14.20;99.90;;;;;;5019273;28;20022;-67
2023/08/07 00:38:48;;;;;;;1.20;0.95;;;14.20;99.90;;;;;;5019624;28;20017;-67
2023/08/07 00:41:16;;;;;;;1.55;0.95;;;14.20;99.90;;;;;;5014278;28;20106;-67
2023/08/07 00:43:41;;;;;;;2.08;1.00;;;14.20;99.90;;;;;;5015044;28;20026;-67
2023/08/07 00:46:07;;;;;;;0.95;0.82;;;14.20;99.90;;;;;;4999809;28;20031;-67
2023/08/07 00:48:33;;;;;;;1.35;1.05;;;14.20;99.90;;;;;;4998544;28;20026;-67
2023/08/07 00:50:59;;;;;;;1.35;0.95;;;14.30;99.90;;;;;;4999505;28;20109;-67
2023/08/07 00:53:25;;;;;;;0.95;0.95;;;14.30;99.90;;;;;;4999452;28;20069;-67
2023/08/07 00:55:51;;;;;;;2.92;0.85;;;14.30;99.90;;;;;;4999487;28;20022;-67
2023/08/07 00:58:17;;;;;;;1.77;0.80;;;14.30;99.90;;;;;;5017951;28;20041;-67
2023/08/07 01:00:43;;;;;;;3.90;0.80;;;14.20;99.90;;;;;;5018879;28;20018;-67
2023/08/07 01:03:10;;;;;;;1.13;0.88;;;14.30;99.90;;;;;;5018044;28;20018;-67
2023/08/07 01:05:36;;;;;;;0.82;0.80;;;14.20;99.90;;;;;;5017937;28;20065;-67
2023/08/07 01:08:02;;;;;;;1.95;0.82;;;14.30;99.90;;;;;;5018685;28;20052;-67
2023/08/07 01:10:51;;;;;;;2.40;0.60;;;14.30;99.90;;;;;;5017785;28;20030;-68
2023/08/07 01:13:31;;;;;;;2.38;0.80;;;14.30;99.90;;;;;;5017943;28;20033;-67
2023/08/07 01:16:03;;;;;;;1.88;0.85;;;14.40;99.90;;;;;;5018541;28;20034;-67
2023/08/07 01:18:30;;;;;;;2.25;1.13;;;14.40;99.90;;;;;;5019080;28;20029;-67
2023/08/07 01:20:56;;;;;;;0.90;0.90;;;14.40;99.90;;;;;;5017569;28;20026;-67
2023/08/07 01:23:21;;;;;;;2.00;1.17;;;14.50;99.90;;;;;;5017994;28;20045;-67
2023/08/07 01:25:47;;;;;;;1.05;0.82;;;14.40;99.90;;;;;;5017683;28;20034;-67
2023/08/07 01:28:28;;;;;;;1.77;1.10;;;14.40;99.90;;;;;;5017543;28;20022;-67
2023/08/07 01:30:58;;;;;;;1.02;0.95;;;14.20;99.90;;;;;;5017229;28;20029;-67
2023/08/07 01:33:37;;;;;;;4.32;1.10;;;14.20;99.90;;;;;;5018909;28;20034;-67
2023/08/07 01:36:06;;;;;;;0.65;0.50;;;14.10;99.90;;;;;;5017161;28;20117;-67
2023/08/07 01:38:33;;;;;;;1.15;0.80;;;14.00;99.90;;;;;;5017887;28;20100;-67
2023/08/07 01:41:01;;;;;;;1.20;1.00;;;13.90;99.90;;;;;;5017332;28;20029;-67
2023/08/07 01:43:27;;;;;;;3.20;1.25;;;13.80;99.90;;;;;;5018088;28;20022;-67
2023/08/07 01:45:54;;;;;;;0.95;0.77;;;13.80;99.90;;;;;;5016651;28;20022;-67
2023/08/07 01:48:20;;;;;;;0.85;0.80;;;13.80;99.90;;;;;;5017034;28;20026;-67
2023/08/07 01:50:46;;;;;;;1.30;0.90;;;13.70;99.90;;;;;;5017074;28;20030;-67
2023/08/07 01:53:12;;;;;;;1.58;0.82;;;13.70;99.90;;;;;;5017885;28;20033;-67
2023/08/07 01:55:37;;;;;;;0.93;0.77;;;13.70;99.90;;;;;;5016865;28;20026;-67
2023/08/07 01:58:03;;;;;;;1.02;0.75;;;13.70;99.90;;;;;;5016936;28;20141;-67
2023/08/07 02:00:28;;;;;;;1.13;0.80;;;13.70;99.90;;;;;;5017383;28;20057;-67
2023/08/07 02:02:54;;;;;;;1.23;0.73;;;13.70;99.90;;;;;;5016541;28;20030;-66
2023/08/07 02:05:21;;;;;;;1.25;0.70;;;13.60;99.90;;;;;;5017823;28;20037;-66
2023/08/07 02:07:47;;;;;;;2.00;0.73;;;13.50;99.90;;;;;;5016811;28;20021;-66
2023/08/07 02:10:12;;;;;;;1.85;0.70;;;13.50;99.90;;;;;;5016615;28;20014;-66
2023/08/07 02:12:38;;;;;;;3.70;1.38;;;13.50;99.90;;;;;;5017279;28;20029;-66
2023/08/07 02:15:04;;;;;;;2.75;0.60;;;13.50;99.90;;;;;;5016835;28;20025;-66
2023/08/07 02:17:30;;;;;;;6.80;0.90;;;13.50;99.90;;;;;;5016647;28;20076;-66
2023/08/07 02:19:56;;;;;;;4.70;0.68;;;13.50;99.90;;;;;;5017502;28;20026;-66
2023/08/07 02:22:22;;;;;;;0.68;0.57;;;13.60;99.90;;;;;;5017502;28;20026;-66
2023/08/07 02:24:47;;;;;;;1.15;0.70;;;13.60;99.90;;;;;;5016723;28;20026;-66
2023/08/07 02:27:13;;;;;;;2.42;0.68;;;13.60;99.90;;;;;;5017474;28;20041;-66
2023/08/07 02:29:39;;;;;;;2.55;0.70;;;13.60;99.90;;;;;;5016577;28;20094;-66
2023/08/07 02:32:05;;;;;;;3.50;1.00;;;13.60;99.90;;;;;;5017340;28;20081;-66
2023/08/07 02:34:31;;;;;;;2.95;0.88;;;13.50;99.90;;;;;;5017255;28;20021;-66
2023/08/07 02:36:57;;;;;;;2.80;0.80;;;13.60;99.90;;;;;;5017381;28;20033;-66
2023/08/07 02:39:23;;;;;;;1.40;0.82;;;13.60;99.90;;;;;;5017231;28;20026;-66
2023/08/07 02:41:48;;;;;;;0.75;0.60;;;13.60;99.90;;;;;;5016791;28;20022;-66
2023/08/07 02:44:14;;;;;;;4.00;0.88;;;13.60;99.90;;;;;;5014805;28;20022;-66
2023/08/07 02:46:39;;;;;;;4.15;0.77;;;13.60;99.90;;;;;;4997574;28;20026;-66
2023/08/07 02:49:05;;;;;;;4.10;0.75;;;13.60;99.90;;;;;;5013221;28;20030;-66
2023/08/07 02:51:32;;;;;;;5.03;0.88;;;13.60;99.90;;;;;;4997505;28;20022;-66
2023/08/07 02:53:57;;;;;;;3.60;0.80;;;13.60;99.90;;;;;;4997429;28;20035;-66
2023/08/07 02:56:23;;;;;;;0.60;0.50;;;13.60;99.90;;;;;;4997363;28;20089;-66
2023/08/07 02:58:48;;;;;;;1.50;0.70;;;13.50;99.90;;;;;;4997332;28;20031;-66
2023/08/07 03:01:21;;;;;;;5.28;1.15;;;13.50;99.90;;;;;;5002169;28;20106;-66
2023/08/07 03:03:47;;;;;;;5.03;0.90;;;13.50;99.90;;;;;;5017257;28;20087;-66
2023/08/07 03:06:13;;;;;;;3.80;0.60;;;13.50;99.90;;;;;;5016932;28;20030;-66
2023/08/07 03:08:38;;;;;;;1.05;0.57;;;13.50;99.90;;;;;;5017045;28;20073;-66
2023/08/07 03:11:04;;;;;;;2.22;0.82;;;13.40;99.90;;;;;;5016995;28;20097;-66
2023/08/07 03:13:29;;;;;;;5.63;1.10;;;13.40;99.90;;;;;;5017246;28;20024;-66
2023/08/07 03:15:59;;;;;;;1.00;0.50;;;13.40;99.90;;;;;;5015881;28;20046;-66
2023/08/07 03:18:25;;;;;;;1.88;0.50;;;13.30;99.90;;;;;;5012790;28;20032;-66
2023/08/07 03:20:50;;;;;;;0.40;0.40;;;13.40;99.90;;;;;;5012639;28;20022;-66
2023/08/07 03:23:16;;;;;;;1.10;0.63;;;13.40;99.90;;;;;;4996347;28;20026;-66
2023/08/07 03:25:41;;;;;;;1.98;0.77;;;13.40;99.90;;;;;;5012653;28;20038;-66
2023/08/07 03:28:07;;;;;;;0.90;0.57;;;13.40;99.90;;;;;;5012461;28;20050;-66
2023/08/07 03:30:32;;;;;;;0.47;0.47;;;13.30;99.90;;;;;;5012654;28;20057;-66
2023/08/07 03:32:58;;;;;;;2.15;0.60;;;13.30;99.90;;;;;;5007863;28;20026;-66
2023/08/07 03:35:23;;;;;;;1.33;0.50;;;13.40;99.90;;;;;;5013119;28;20033;-66
2023/08/07 03:37:49;;;;;;;1.80;0.50;;;13.30;99.90;;;;;;5012950;28;20062;-66
2023/08/07 03:40:15;;;;;;;0.60;0.60;;;13.40;99.90;;;;;;5012507;28;20019;-66
2023/08/07 03:42:40;;;;;;;0.60;0.40;;;13.30;99.90;;;;;;4997319;28;20018;-66
2023/08/07 03:45:06;;;;;;;1.35;0.50;;;13.40;99.90;;;;;;4996443;28;20038;-66
2023/08/07 03:47:32;;;;;;;0.50;0.50;;;13.40;99.90;;;;;;4996688;28;20037;-66
2023/08/07 03:49:57;;;;;;;0.70;0.60;;;13.40;99.90;;;;;;4996210;28;20034;-66
2023/08/07 03:52:23;;;;;;;1.85;0.80;;;13.40;99.90;;;;;;4996051;28;20034;-66
2023/08/07 03:54:48;;;;;;;1.55;0.77;;;13.40;99.90;;;;;;4996880;28;20038;-66
2023/08/07 03:57:14;;;;;;;1.60;0.82;;;13.50;99.90;;;;;;4997191;28;20026;-66
2023/08/07 03:59:39;;;;;;;0.80;0.73;;;13.50;99.90;;;;;;4996602;28;20026;-66
2023/08/07 04:02:05;;;;;;;2.22;1.13;;;13.40;99.90;;;;;;4999538;28;20113;-66
2023/08/07 04:04:30;;;;;;;1.23;1.10;;;13.50;99.90;;;;;;4999705;28;20033;-66
2023/08/07 04:06:56;;;;;;;2.70;0.80;;;13.50;99.90;;;;;;5015017;28;20037;-66
2023/08/07 04:09:21;;;;;;;1.20;1.10;;;13.50;99.90;;;;;;5019970;28;20030;-66
2023/08/07 04:11:47;;;;;;;1.83;1.15;;;13.50;99.90;;;;;;5019078;28;20033;-66
2023/08/07 04:14:12;;;;;;;1.50;0.80;;;13.40;99.90;;;;;;5019810;28;20037;-66
2023/08/07 04:16:38;;;;;;;1.13;1.02;;;13.40;99.90;;;;;;5018956;28;20026;-66
2023/08/07 04:19:04;;;;;;;2.25;1.60;;;13.40;99.90;;;;;;5019046;28;20018;-66
2023/08/07 04:21:30;;;;;;;1.25;0.75;;;13.30;99.90;;;;;;5018482;28;20026;-66
2023/08/07 04:23:56;;;;;;;1.83;1.17;;;13.40;99.90;;;;;;5019828;28;20029;-66
2023/08/07 04:26:21;;;;;;;1.65;0.85;;;13.30;99.90;;;;;;5020127;28;20034;-66
2023/08/07 04:28:47;;;;;;;3.58;0.95;;;13.30;99.90;;;;;;5035409;28;20014;-66
2023/08/07 04:31:12;;;;;;;6.07;1.10;;;13.30;99.90;;;;;;5035767;28;20022;-66
2023/08/07 04:33:38;;;;;;;1.83;0.75;;;13.30;99.90;;;;;;5018560;28;20041;-66
2023/08/07 04:36:04;;;;;;;1.90;0.80;;;13.30;99.90;;;;;;5019454;28;20030;-66
2023/08/07 04:38:29;;;;;;;3.33;1.02;;;13.30;99.90;;;;;;5017814;28;20080;-66
2023/08/07 04:40:55;;;;;;;1.95;1.05;;;13.30;99.90;;;;;;5018525;28;20030;-66
2023/08/07 04:43:21;;;;;;;2.88;1.15;;;13.30;99.90;;;;;;5018195;28;20014;-66
2023/08/07 04:45:46;;;;;;;2.30;1.15;;;13.30;99.90;;;;;;5019194;28;20113;-66
2023/08/07 04:48:12;;;;;;;6.35;1.33;;;13.30;99.90;;;;;;5018253;28;20030;-66
2023/08/07 04:50:38;;;;;;;3.38;1.08;;;13.40;99.90;;;;;;5019007;28;20033;-66
2023/08/07 04:53:07;;;;;;;3.80;1.38;;;13.50;99.90;;;;;;5018103;28;20026;-66
2023/08/07 04:55:33;;;;;;;4.72;1.40;;;13.50;99.90;;;;;;5017659;28;20117;-66
2023/08/07 04:57:58;;;;;;;2.08;1.20;;;13.50;99.90;;;;;;5019254;28;20105;-66
2023/08/07 05:00:25;;;;;;;2.47;1.42;;;13.50;99.90;;;;;;5019077;28;20022;-66
2023/08/07 05:02:51;;;;;;;2.60;1.20;;;13.50;99.90;;;;;;5018556;28;20029;-66
2023/08/07 05:05:19;;;;;;;2.33;1.50;;;13.40;99.90;;;;;;5018982;28;20057;-66
2023/08/07 05:07:44;;;;;;;2.60;1.27;;;13.40;99.90;;;;;;5018785;28;20026;-66
2023/08/07 05:10:11;;;;;;;1.27;1.17;;;13.40;99.90;;;;;;5015245;28;20052;-66
2023/08/07 05:12:36;;;;;;;2.35;1.40;;;13.40;99.90;;;;;;5006913;28;20033;-66
2023/08/07 05:15:02;;;;;;;2.78;1.63;;;13.40;99.90;;;;;;5017413;28;20033;-66
2023/08/07 05:17:27;;;;;;;3.58;2.55;;;13.50;99.90;;;;;;5018702;28;20021;-66
2023/08/07 05:19:53;;;;;;;1.70;1.20;;;13.50;99.90;;;;;;5017563;28;20022;-66
2023/08/07 05:22:19;;;;;;;3.33;1.40;;;13.50;99.90;;;;;;5017909;28;20026;-66
2023/08/07 05:24:45;;;;;;;1.98;1.13;;;13.50;99.90;;;;;;5017462;28;20026;-66
2023/08/07 05:27:11;;;;;;;3.55;1.08;;;13.60;99.90;;;;;;5018250;28;20029;-66
2023/08/07 05:29:43;;;;;;;1.98;1.10;;;13.50;99.90;;;;;;5018348;28;20034;-66
2023/08/07 05:32:10;;;;;;;4.55;1.50;;;13.60;99.90;;;;;;5017336;28;20186;-66
2023/08/07 05:34:36;;;;;;;2.92;1.30;;;13.40;99.90;;;;;;5018484;28;20066;-66
2023/08/07 05:37:01;;;;;;;2.22;1.00;;;13.40;99.90;;;;;;5018713;28;20120;-66
2023/08/07 05:39:27;;;;;;;2.08;1.10;;;13.40;99.90;;;;;;5017267;28;20075;-66
2023/08/07 05:41:54;;;;;;;2.33;1.15;;;13.50;99.90;;;;;;5017404;28;20029;-66
2023/08/07 05:44:20;;;;;;;2.42;1.30;;;13.50;99.90;;;;;;5017723;28;20164;-66
2023/08/07 05:46:45;;;;;;;1.98;1.30;;;13.60;99.90;;;;;;5017857;28;20097;-67
2023/08/07 05:49:11;;;;;;;3.72;1.30;;;13.60;99.90;;;;;;5017266;28;20025;-66
2023/08/07 05:51:36;;;;;;;4.93;1.55;;;13.70;99.90;;;;;;5034245;28;20113;-67
2023/08/07 05:54:02;;;;;;;2.50;1.10;;;13.70;99.90;;;;;;5018473;28;20026;-67
2023/08/07 05:56:28;;;;;;;4.00;1.05;;;13.80;99.90;;;;;;5017605;28;20030;-66
2023/08/07 05:58:53;;;;;;;2.40;0.90;;;13.80;99.90;;;;;;5016937;28;20068;-66
2023/08/07 06:01:19;;;;;;;0.95;0.73;;;13.90;99.90;;;;;;5017902;28;20045;-66
2023/08/07 06:03:44;;;;;;;1.10;0.80;;;13.80;99.90;;;;;;5017023;28;20045;-66
2023/08/07 06:06:10;;;;;;;1.77;1.00;;;13.80;99.90;;;;;;5016837;28;20076;-66
2023/08/07 06:08:46;;;;;;;8.63;1.27;;;13.80;99.90;;;;;;5018053;28;20030;-66
2023/08/07 06:11:12;;;;;;;0.98;0.60;;;13.90;99.90;;;;;;5016816;28;20037;-66
2023/08/07 06:13:37;;;;;;;1.20;0.60;;;13.90;99.90;;;;;;5017894;28;20030;-66
2023/08/07 06:16:03;;;;;;;2.40;0.57;;;13.80;99.90;;;;;;5016392;28;20037;-66
2023/08/07 06:18:30;;;;;;;2.13;0.95;;;13.80;99.90;;;;;;5016711;28;20112;-67
2023/08/07 06:20:56;;;;;;;2.97;0.95;;;13.90;99.90;;;;;;5017456;28;20022;-66
2023/08/07 06:23:22;;;;;;;1.55;0.85;;;14.00;99.90;;;;;;5016268;28;20026;-66
2023/08/07 06:25:47;;;;;;;3.90;0.88;;;14.00;99.90;;;;;;5016463;28;20164;-66
2023/08/07 06:28:13;;;;;;;2.40;0.60;;;14.00;99.90;;;;;;5017535;28;20018;-66
2023/08/07 06:30:38;;;;;;;0.82;0.80;;;14.00;99.90;;;;;;5016124;28;20026;-66
2023/08/07 06:33:04;;;;;;;2.78;1.02;;;14.00;99.90;;;;;;5016629;28;20029;-66
2023/08/07 06:35:29;;;;;;;2.92;1.00;;;14.10;99.90;;;;;;5016642;28;20149;-67
2023/08/07 06:37:55;;;;;;;1.55;0.80;;;14.10;99.90;;;;;;5016752;28;20021;-67
2023/08/07 06:40:20;;;;;;;1.70;0.65;;;14.10;99.90;;;;;;5016285;28;20026;-67
2023/08/07 06:42:46;;;;;;;1.23;0.90;;;14.10;99.90;;;;;;5016304;28;20026;-67
2023/08/07 06:45:11;;;;;;;2.00;1.10;;;14.20;99.90;;;;;;5017538;28;20022;-68
2023/08/07 06:47:37;;;;;;;1.00;0.90;;;14.20;99.90;;;;;;5015811;28;20053;-68
2023/08/07 06:50:03;;;;;;;2.03;1.00;;;14.20;99.90;;;;;;5016476;28;20026;-67
2023/08/07 06:52:28;;;;;;;1.33;0.93;;;14.20;99.90;;;;;;5016487;28;20057;-68
2023/08/07 06:54:54;;;;;;;2.47;0.90;;;14.30;99.90;;;;;;5016125;28;20026;-67
2023/08/07 06:57:19;;;;;;;2.47;1.08;;;14.30;99.90;;;;;;5016057;28;20022;-67
2023/08/07 06:59:52;;;;;;;3.25;0.80;;;14.30;99.90;;;;;;5016722;28;20109;-67
2023/08/07 07:02:18;;;;;;;1.15;0.77;;;14.30;99.90;;;;;;5016664;28;20030;-67
2023/08/07 07:04:43;;;;;;;1.58;0.88;;;14.20;99.90;;;;;;5016976;28;20108;-67
2023/08/07 07:07:09;;;;;;;0.95;0.73;;;14.10;99.90;;;;;;5016287;28;20026;-67
2023/08/07 07:09:34;;;;;;;0.98;0.80;;;14.10;99.90;;;;;;5015889;28;20053;-68
2023/08/07 07:12:00;;;;;;;1.88;1.05;;;14.10;99.90;;;;;;5016710;28;20069;-67
2023/08/07 07:14:25;;;;;;;2.30;0.75;;;14.10;99.90;;;;;;5016077;28;20026;-67
2023/08/07 07:16:51;;;;;;;1.75;0.88;;;14.00;99.90;;;;;;5012998;28;20026;-68
2023/08/07 07:19:16;;;;;;;1.05;0.95;;;14.00;99.90;;;;;;5012723;28;20036;-68
2023/08/07 07:21:42;;;;;;;2.17;0.75;;;14.00;99.90;;;;;;5023128;28;20026;-67
2023/08/07 07:24:08;;;;;;;1.80;0.90;;;14.00;99.90;;;;;;5016166;28;20022;-67
2023/08/07 07:26:33;;;;;;;1.38;0.88;;;14.00;99.90;;;;;;5015723;28;20084;-67
2023/08/07 07:28:59;;;;;;;3.63;1.00;;;14.00;99.90;;;;;;5015939;28;20022;-66
2023/08/07 07:31:24;;;;;;;1.08;0.90;;;14.10;99.90;;;;;;5016077;28;20129;-67
2023/08/07 07:33:50;;;;;;;3.00;1.00;;;14.10;99.90;;;;;;5015905;28;20057;-66
2023/08/07 07:36:17;;;;;;;3.72;1.35;;;14.10;99.90;;;;;;5018632;28;20022;-67
2023/08/07 07:38:43;;;;;;;2.50;1.35;;;14.10;99.90;;;;;;5020683;28;20018;-67
2023/08/07 07:41:11;;;;;;;5.95;1.15;;;14.20;99.90;;;;;;5020042;28;20014;-67
2023/08/07 07:43:37;;;;;;;2.65;1.40;;;14.20;99.90;;;;;;5019819;28;20113;-67
2023/08/07 07:46:02;;;;;;;2.33;1.50;;;14.20;99.90;;;;;;5019441;28;20060;-68
2023/08/07 07:48:28;;;;;;;2.10;1.40;;;14.30;99.90;;;;;;5015750;28;20030;-68
2023/08/07 07:51:23;;;;;;;2.20;1.40;;;14.40;99.90;;;;;;5000107;28;20102;-68
2023/08/07 07:53:49;;;;;;;4.50;1.52;;;14.40;99.90;;;;;;4999981;28;20038;-67
2023/08/07 07:56:14;;;;;;;2.42;1.30;;;14.40;99.90;;;;;;5000418;28;20030;-67
2023/08/07 07:58:40;;;;;;;2.35;1.38;;;14.40;99.90;;;;;;4999413;28;20022;-68
2023/08/07 08:01:07;;;;;;;3.15;1.50;;;14.40;99.90;;;;;;4999206;28;20022;-67
2023/08/07 08:03:32;;;;;;;1.92;1.60;;;14.50;99.90;;;;;;5001635;28;20036;-68
2023/08/07 08:05:58;;;;;;;4.55;2.47;;;14.50;99.90;;;;;;5017506;28;20026;-66
2023/08/07 08:08:23;;;;;;;3.35;2.38;;;14.50;99.90;;;;;;5017387;28;20144;-66
2023/08/07 08:10:59;;;;;;;4.90;2.55;;;14.50;99.90;;;;;;5019477;28;20026;-66
2023/08/07 08:13:25;;;;;;;7.18;2.10;;;14.50;99.90;;;;;;5019176;28;20049;-67
2023/08/07 08:15:51;;;;;;;2.92;1.45;;;14.50;99.90;;;;;;5018862;28;20037;-66
2023/08/07 08:18:16;;;;;;;5.28;1.50;;;14.40;99.90;;;;;;5017782;28;20026;-66
2023/08/07 08:20:42;;;;;;;2.25;1.83;;;14.40;99.90;;;;;;5019034;28;20014;-66
2023/08/07 08:23:07;;;;;;;4.32;1.90;;;14.40;99.90;;;;;;5018984;28;20030;-66
2023/08/07 08:25:33;;;;;;;4.25;1.73;;;14.40;99.90;;;;;;5018704;28;20041;-66
2023/08/07 08:28:00;;;;;;;5.07;1.83;;;14.30;99.90;;;;;;5018855;28;20033;-66
2023/08/07 08:30:25;;;;;;;6.03;2.33;;;14.20;99.90;;;;;;5019572;28;20037;-66
2023/08/07 08:32:51;;;;;;;7.63;1.70;;;14.20;99.90;;;;;;5018610;28;20034;-66
2023/08/07 08:35:16;;;;;;;6.90;2.00;;;14.20;99.90;;;;;;5018758;28;20033;-66
2023/08/07 08:37:42;;;;;;;3.47;1.70;;;14.20;99.90;;;;;;5019017;28;20030;-66
2023/08/07 08:40:12;;;;;;;6.85;1.73;;;14.20;99.90;;;;;;5019525;28;20018;-66
2023/08/07 08:42:39;;;;;;;3.17;1.63;;;14.20;99.90;;;;;;5018595;28;20025;-66
2023/08/07 08:45:05;;;;;;;3.22;1.40;;;14.30;99.90;;;;;;5018579;28;20028;-66
2023/08/07 08:47:34;;;;;;;5.40;1.35;;;14.30;99.90;;;;;;5018926;28;20026;-66
2023/08/07 08:50:11;;;;;;;3.90;1.02;;;14.20;99.90;;;;;;5018557;28;20033;-66
2023/08/07 08:52:38;;;;;;;4.50;1.20;;;14.20;99.90;;;;;;5018949;28;20116;-66
2023/08/07 08:55:07;;;;;;;2.10;1.23;;;14.20;99.90;;;;;;5018686;28;20052;-66
2023/08/07 08:57:33;;;;;;;4.65;1.48;;;14.20;99.90;;;;;;5018952;28;20022;-66
2023/08/07 08:59:59;;;;;;;2.22;1.60;;;14.30;99.90;;;;;;5018067;28;20029;-66
2023/08/07 09:02:26;;;;;;;2.75;1.30;;;14.30;99.90;;;;;;5035384;28;20026;-66
2023/08/07 09:04:51;;;;;;;2.85;1.10;;;14.30;99.90;;;;;;5017998;28;20022;-66
2023/08/07 09:07:20;;;;;;;3.28;1.27;;;14.30;99.90;;;;;;5018904;28;20121;-66
2023/08/07 09:09:47;;;;;;;3.75;1.33;;;14.40;99.90;;;;;;5019190;28;20022;-66
2023/08/07 09:12:18;;;;;;;4.55;1.35;;;14.30;99.90;;;;;;5018723;28;20057;-66
2023/08/07 09:14:46;;;;;;;2.92;1.20;;;14.30;99.90;;;;;;5017741;28;20036;-66
2023/08/07 09:17:13;;;;;;;2.45;1.17;;;14.30;99.90;;;;;;5017811;28;20029;-66
2023/08/07 09:19:38;;;;;;;3.50;1.45;;;14.30;99.90;;;;;;5018499;28;20026;-66
2023/08/07 09:22:04;;;;;;;1.83;0.90;;;14.40;99.90;;;;;;5017925;28;20021;-66
2023/08/07 09:24:30;;;;;;;3.00;0.95;;;14.40;99.90;;;;;;5017459;28;20018;-66
2023/08/07 09:26:56;;;;;;;1.80;1.00;;;14.40;99.90;;;;;;5034065;28;20030;-66
2023/08/07 09:29:22;;;;;;;0.68;0.60;;;14.50;99.90;;;;;;5017614;28;20025;-66
2023/08/07 09:31:47;;;;;;;1.55;0.95;;;14.60;99.90;;;;;;5019012;28;20029;-66
2023/08/07 09:34:16;;;;;;;5.65;0.90;;;14.80;99.90;;;;;;5017744;28;20037;-66
2023/08/07 09:36:42;;;;;;;1.45;0.95;;;15.00;99.90;;;;;;5018463;28;20090;-66
2023/08/07 09:39:07;;;;;;;0.77;0.60;;;15.10;99.90;;;;;;5017501;28;20053;-66
2023/08/07 09:41:34;;;;;;;1.27;1.00;;;15.20;99.90;;;;;;5033809;28;20022;-66
2023/08/07 09:44:10;;;;;;;0.93;0.80;;;15.20;99.90;;;;;;5018245;28;20076;-66
2023/08/07 09:46:43;;;;;;;1.88;0.80;;;15.40;99.90;;;;;;5017098;28;20018;-66
2023/08/07 09:49:09;;;;;;;0.90;0.70;;;15.50;99.90;;;;;;5018077;28;20021;-66
2023/08/07 09:51:44;;;;;;;0.80;0.70;;;15.60;99.90;;;;;;5018037;28;20045;-66
2023/08/07 09:54:11;;;;;;;2.83;0.85;;;15.70;99.90;;;;;;5018078;28;20026;-66
2023/08/07 09:56:37;;;;;;;1.35;0.90;;;15.70;99.90;;;;;;5017808;28;20013;-66
2023/08/07 09:59:04;;;;;;;1.60;1.10;;;15.80;99.90;;;;;;5017349;28;20017;-66
2023/08/07 10:01:29;;;;;;;3.20;1.92;;;15.90;99.90;;;;;;5017028;28;20049;-66
2023/08/07 10:03:56;;;;;;;2.38;1.08;;;16.00;99.90;;;;;;5017795;28;20065;-66
2023/08/07 10:06:22;;;;;;;1.45;0.98;;;15.90;99.90;;;;;;5017741;28;20045;-66
2023/08/07 10:08:48;;;;;;;1.23;1.00;;;15.90;99.90;;;;;;5017637;28;20053;-66
2023/08/07 10:11:14;;;;;;;0.65;0.63;;;16.00;99.90;;;;;;5017676;28;20080;-66
2023/08/07 10:13:40;;;;;;;1.05;1.00;;;16.10;99.90;;;;;;5017154;28;20022;-66
2023/08/07 10:16:07;;;;;;;1.58;1.00;;;16.10;99.90;;;;;;5033133;28;20080;-66
2023/08/07 10:18:33;;;;;;;1.48;0.80;;;16.10;99.90;;;;;;5016650;28;20061;-66
2023/08/07 10:21:01;;;;;;;1.48;0.70;;;16.10;99.90;;;;;;5017295;28;20022;-66
2023/08/07 10:23:27;;;;;;;2.30;0.82;;;16.10;99.90;;;;;;5016558;28;20029;-66
2023/08/07 10:25:54;;;;;;;2.80;1.00;;;16.10;99.90;;;;;;5016460;28;20030;-66
2023/08/07 10:28:21;;;;;;;1.10;1.00;;;16.20;99.90;;;;;;5017647;28;20030;-66
2023/08/07 10:30:48;;;;;;;0.82;0.70;;;16.20;99.90;;;;;;5016504;28;20037;-66
2023/08/07 10:33:14;;;;;;;2.00;0.82;;;16.20;99.90;;;;;;5017602;28;20018;-66
2023/08/07 10:35:47;;;;;;;0.80;0.80;;;16.20;99.90;;;;;;5033340;28;20030;-66
2023/08/07 10:38:12;;;;;;;1.13;0.60;;;16.20;99.90;;;;;;5017627;28;20018;-66
2023/08/07 10:41:07;;;;;;;2.38;0.70;;;16.10;99.90;;;;;;5017443;28;20022;-66
2023/08/07 10:43:38;;;;;;;1.48;0.90;;;16.10;99.90;;;;;;4990743;28;20034;-66
2023/08/07 10:46:23;;;;;;;2.88;1.50;;;16.20;99.90;;;;;;5017095;28;20042;-66
2023/08/07 10:48:57;;;;;;;0.50;0.43;;;16.20;99.90;;;;;;5017750;28;20025;-66
2023/08/07 10:51:30;;;;;;;2.05;0.95;;;16.20;99.90;;;;;;5017397;28;20092;-66
2023/08/07 10:53:56;;;;;;;1.73;0.60;;;16.20;99.90;;;;;;5017191;28;20029;-66
2023/08/07 10:56:33;;;;;;;2.25;0.65;;;16.20;99.90;;;;;;5016219;28;20022;-66
2023/08/07 10:59:11;;;;;;;0.85;0.73;;;16.20;99.90;;;;;;5016963;28;20025;-66
2023/08/07 11:01:42;;;;;;;2.25;0.85;;;16.20;99.90;;;;;;5017426;28;20041;-66
2023/08/07 11:04:11;;;;;;;1.10;0.55;;;16.30;99.90;;;;;;5016137;28;20026;-66
2023/08/07 11:06:37;;;;;;;0.57;0.40;;;16.40;99.90;;;;;;5015928;28;20027;-66
2023/08/07 11:09:08;;;;;;;0.98;0.73;;;16.50;99.90;;;;;;5017041;28;20029;-66
2023/08/07 11:11:46;;;;;;;2.03;0.80;;;16.50;99.90;;;;;;5020106;28;20022;-66
2023/08/07 11:14:17;;;;;;;0.65;0.57;;;16.40;99.90;;;;;;5020348;28;20260;-66
2023/08/07 11:16:43;;;;;;;2.85;0.57;;;16.50;99.90;;;;;;5020719;28;20018;-66
2023/08/07 11:19:09;;;;;;;2.45;0.80;;;16.50;99.90;;;;;;5021203;28;20047;-66
2023/08/07 11:21:36;;;;;;;0.73;0.52;;;16.60;99.90;;;;;;5020004;28;20028;-66
2023/08/07 11:24:02;;;;;;;1.55;0.70;;;16.60;99.90;;;;;;5020835;28;20026;-66
2023/08/07 11:26:28;;;;;;;2.72;1.20;;;16.50;99.90;;;;;;5020695;28;20045;-66
2023/08/07 11:28:54;;;;;;;1.75;0.70;;;16.70;99.90;;;;;;5019829;28;20022;-66
2023/08/07 11:31:21;;;;;;;2.45;0.80;;;16.70;99.90;;;;;;5019790;28;20026;-66
2023/08/07 11:33:50;;;;;;;1.83;1.02;;;16.60;99.90;;;;;;5019655;28;20021;-66
2023/08/07 11:36:15;;;;;;;2.00;1.00;;;16.70;99.90;;;;;;5020046;28;20133;-66
2023/08/07 11:38:43;;;;;;;4.28;0.93;;;16.90;99.90;;;;;;5036042;28;20025;-66
2023/08/07 11:41:10;;;;;;;2.15;1.13;;;17.20;99.90;;;;;;5020622;28;20073;-66
2023/08/07 11:43:36;;;;;;;3.70;1.30;;;17.30;99.90;;;;;;5020725;28;20049;-66
2023/08/07 11:46:04;;;;;;;3.13;1.00;;;17.60;99.90;;;;;;5020850;28;20022;-67
2023/08/07 11:48:31;;;;;;;3.85;1.42;;;17.80;99.90;;;;;;5019742;28;20044;-68
2023/08/07 11:50:58;;;;;;;7.05;1.08;;;18.00;99.90;;;;;;5019377;28;20022;-67
2023/08/07 11:53:26;;;;;;;2.55;1.02;;;18.10;99.90;;;;;;5020157;28;20053;-67
2023/08/07 11:56:15;;;;;;;2.55;1.10;;;17.90;99.90;;;;;;5020185;28;20037;-67
2023/08/07 11:58:45;;;;;;;2.35;0.82;;;17.70;99.90;;;;;;5020386;28;20058;-67
2023/08/07 12:01:14;;;;;;;5.43;1.60;;;17.70;99.90;;;;;;5019418;28;20053;-67
2023/08/07 12:03:51;;;;;;;4.97;1.02;;;17.90;99.90;;;;;;5019051;28;20057;-68
2023/08/07 12:06:16;;;;;;;6.55;1.98;;;18.00;99.90;;;;;;5020205;28;20120;-67
2023/08/07 12:08:42;;;;;;;3.38;1.30;;;18.00;99.90;;;;;;5019103;28;20112;-67
2023/08/07 12:11:13;;;;;;;9.18;1.67;;;17.90;99.90;;;;;;5020230;28;20034;-67
2023/08/07 12:13:42;;;;;;;6.70;1.38;;;17.80;99.90;;;;;;5019640;28;20038;-67
2023/08/07 12:16:09;;;;;;;2.50;1.20;;;17.90;99.90;;;;;;5019813;28;20060;-68
2023/08/07 12:18:37;;;;;;;4.13;1.08;;;17.90;99.90;;;;;;5019767;28;20064;-68
2023/08/07 12:21:06;;;;;;;1.58;1.10;;;17.80;99.90;;;;;;5018490;28;20045;-67
2023/08/07 12:23:34;;;;;;;5.18;1.20;;;17.80;99.90;;;;;;5018794;28;20029;-67
2023/08/07 12:26:00;;;;;;;3.40;1.00;;;17.70;99.90;;;;;;5019986;28;20119;-67
2023/08/07 12:28:25;;;;;;;1.55;0.90;;;17.70;99.90;;;;;;5019975;28;20030;-67
2023/08/07 12:30:52;;;;;;;6.85;1.35;;;18.00;99.90;;;;;;5019592;28;20030;-67
2023/08/07 12:33:18;;;;;;;3.63;1.08;;;18.80;99.90;;;;;;5019449;28;20030;-67
2023/08/07 12:35:43;;;;;;;2.80;1.20;;;19.30;99.90;;;;;;5018414;28;20025;-68
2023/08/07 12:38:09;;;;;;;3.65;1.33;;;20.20;99.90;;;;;;5018839;28;20026;-68
2023/08/07 12:40:36;;;;;;;2.90;1.40;;;20.90;99.90;;;;;;5019398;28;20022;-68
2023/08/07 12:43:02;;;;;;;4.03;1.23;;;21.50;99.90;;;;;;5019341;28;20018;-68
2023/08/07 12:45:28;;;;;;;4.18;1.60;;;22.30;99.90;;;;;;5018541;28;20036;-68
2023/08/07 12:47:53;;;;;;;4.78;1.35;;;23.00;99.90;;;;;;5018366;28;20034;-68